Tiempo atmosférico en la estación meteorológica de Fuente De Piedra, Málaga (423 m.)



Fecha
DESCASC
Temp. máxima en grados centígrados (hora)
DESCASC
Temp. mínima en grados centígrados (hora)
DESCASC
Temp. media en grados centígrados
DESCASC
Racha de viento máxima en m/sg (hora)
DESCASC
Velocidad máxima media en intervalos de 10 minutos(hora)
DESCASC
Precipitaciones diarias en mm
DESCASC
Precipitaciones de 00:00 a 06:00 en mm
DESCASC
Precipitaciones de 06:00 a 12:00 en mm
DESCASC
Precipitaciones de 12:00 a 18:00 en mm
DESCASC
Precipitaciones de 18:00 a 24:00 en mm
DESCASC
10-07-2020 36.5 (17:20) 15.6 (07:30) 26.1 8.06 (15:50) 5 (22:50) 0 0 0 0 0
09-07-2020 34 (16:20) 17.7 (07:10) 25.9 9.17 (16:40) 5.56 (17:00) 0 0 0 0 0
08-07-2020 34.6 (15:30) 23.9 (03:50) 29.2 16.11 (10:50) 11.39 (11:00) 0 0 0 0 0
07-07-2020 40.9 (15:40) 19.6 (07:20) 30.3 10 (17:10) 5.83 (17:10) 0 0 0 0 0
06-07-2020 39.6 (16:50) 17.8 (00:00) 28.7 7.5 (17:30) 5.28 (20:10) 0 0 0 0 0
05-07-2020 33.6 (16:40) 20.6 (00:00) 27.1 12.78 (16:10) 8.61 (18:20) 0 0 0 0 0
04-07-2020 33.1 (16:50) 18.8 (00:00) 25.9 10.83 (19:40) 7.78 (19:40) 0 0 0 0 0
03-07-2020 35 (16:40) 16.6 (07:30) 25.8 8.33 (00:40) 5.28 (00:40) 0 0 0 0 0
02-07-2020 34 (16:10) 16.8 (00:00) 25.4 10.83 (18:30) 6.67 (22:00) 0 0 0 0 0
01-07-2020 35.6 (17:30) 16.9 (00:00) 26.2 8.61 (19:00) 4.72 (18:50) 0 0 0 0 0
30-06-2020 36.4 (16:50) 18.8 (00:00) 27.6 11.39 (01:20) 6.67 (01:30) 0 0 0 0 0
29-06-2020 36.1 (16:30) 19 (00:00) 27.5 11.11 (19:00) 7.5 (18:40) 0 0 0 0 0
28-06-2020 37.3 (17:30) 16.9 (00:00) 27.1 8.89 (19:00) 6.39 (19:10) 0 0 0 0 0
27-06-2020 32.8 (18:30) 14.4 (00:00) 23.6 7.78 (15:50) 4.17 (15:50) 0 0 0 0 0
26-06-2020 30.3 (17:30) 16.3 (00:00) 23.3 9.44 (18:00) 5.83 (18:40) 0 0 0 0 0
25-06-2020 34.5 (16:40) 17 (00:00) 25.8 10.28 (20:00) 6.94 (00:20) 0 0 0 0 0
24-06-2020 33.2 (17:00) 17.2 (00:00) 25.2 13.06 (22:50) 7.5 (22:50) 0 0 0 0 0
23-06-2020 34.2 (15:00) 21.8 (00:00) 28 14.17 (17:10) 9.72 (17:10) 0 0 0 0 0
22-06-2020 34.5 (16:50) 17.1 (00:00) 25.8 13.61 (16:30) 8.89 (16:10) 0 0 0 0 0
21-06-2020 36.5 (18:50) 15 (00:00) 25.8 6.39 (15:50) 3.61 (21:30) 0 0 0 0 0
20-06-2020 34.6 (18:00) 14.3 (00:00) 24.4 7.78 (18:40) 5 (19:20) 0 0 0 0 0
19-06-2020 30.6 (18:30) 12.6 (00:00) 21.6 8.06 (20:50) 5.56 (20:50) 0 0 0 0 0
18-06-2020 30 (16:30) 14.2 (00:00) 22.1 12.22 (19:40) 6.94 (19:40) 0 0 0 0 0
17-06-2020 28.6 (19:10) 15.6 (00:00) 22.1 9.17 (17:50) 5.56 (16:40) 0 0 0 0 0
16-06-2020 27.5 (17:00) 15.7 (00:00) 21.6 11.94 (15:40) 7.22 (19:40) 0 0 0 0 0
15-06-2020 28.6 (17:10) 10.9 (00:00) 19.8 8.33 (14:30) 5.28 (20:40) 0 0 0 0 0
14-06-2020 26.9 (17:20) 12 (00:00) 19.4 9.72 (19:50) 5.83 (19:00) 0 0 0 0 0
13-06-2020 25.2 (17:30) 12.3 (00:00) 18.8 10 (00:10) 6.11 (00:10) 0 0 0 0 0
12-06-2020 21.7 (16:50) 14 (00:00) 17.9 12.5 (18:50) 8.06 (20:20) 0 0 0 0 0

Gráficas

Temp. máximas Temp. mínimas Temp. medias Precipitaciones Rachas de viento máximas Velocidades máximas media en intervalos de 10 minutos

Datos horarios

Fecha y hora oficial Temperatura (ºC) Velocidad del viento (km/h) Dirección del viento Racha (km/h) Dirección de racha Precipitación (mm) Presión (hPa) Tendencia (hPa) Humedad (%)
2020-07-11 23:00:00 25.1 32 Sur 48 Sur 0 -- -- 55
2020-07-11 22:00:00 24.6 26 Sur 48 Sur 0 -- -- 62
2020-07-11 21:00:00 24.6 24 Sur 47 Sur 0 -- -- 67
2020-07-11 20:00:00 26.3 31 Sur 46 Sur 0 -- -- 60
2020-07-11 19:00:00 27.1 28 Sur 47 Sur 0 -- -- 59
2020-07-11 18:00:00 28.3 35 Sur 55 Sur 0 -- -- 55
2020-07-11 17:00:00 28.7 38 Sur 61 Sur 0 -- -- 53
2020-07-11 16:00:00 29.4 42 Sur 62 Sudeste 0 -- -- 51
2020-07-11 15:00:00 30 32 Sur 53 Sur 0 -- -- 47
2020-07-11 14:00:00 29.9 27 Sur 45 Sur 0 -- -- 48
2020-07-11 13:00:00 29.7 30 Sur 45 Sur 0 -- -- 46
2020-07-11 12:00:00 29.1 27 Sur 38 Sur 0 -- -- 43
2020-07-11 11:00:00 28.2 23 Sur 31 Sur 0 -- -- 44
2020-07-11 10:00:00 27.5 21 Sur 28 Sur 0 -- -- 47
2020-07-11 09:00:00 25.2 14 Sur 20 Sur 0 -- -- 49
2020-07-11 08:00:00 22.5 6 Sur 13 Sudoeste 0 -- -- 56
2020-07-11 07:00:00 21.9 4 Sudoeste 17 Sudoeste 0 -- -- 54
2020-07-11 06:00:00 21.2 8 Sudoeste 14 Sudoeste 0 -- -- 56
2020-07-11 05:00:00 21.6 3 Sudoeste 4 Sudoeste 0 -- -- 55
2020-07-11 04:00:00 22 2 Noroeste 6 Sudoeste 0 -- -- 51
2020-07-11 03:00:00 23.4 5 Oeste 15 Sudoeste 0 -- -- 47
2020-07-11 02:00:00 24 12 Sudoeste 17 Sudoeste 0 -- -- 44
2020-07-11 01:00:00 23.4 7 Sudoeste 12 Sudoeste 0 -- -- 45
2020-07-11 00:00:00 24.7 8 Sudoeste 19 Sudoeste 0 -- -- 42
2020-07-10 23:00:00 26.7 17 Sudoeste 23 Sudoeste 0 -- -- 39
2020-07-10 22:00:00 28.1 10 Sur 24 Sur 0 -- -- 36
2020-07-10 21:00:00 31.5 17 Sur 25 Sur 0 -- -- 30
2020-07-10 20:00:00 34.7 14 Sur 21 Sur 0 -- -- 24
2020-07-10 19:00:00 36 6 Sur 27 Sur 0 -- -- 20
2020-07-10 18:00:00 36.2 9 Oeste 24 Norte 0 -- -- 19
2020-07-10 17:00:00 35.6 8 Noroeste 28 Este 0 -- -- 20
2020-07-10 16:00:00 35.6 11 Norte 29 Norte 0 -- -- 21
2020-07-10 15:00:00 35.4 8 Norte 20 Noroeste 0 -- -- 22
2020-07-10 14:00:00 33.9 5 Oeste 12 Sur 0 -- -- 20
2020-07-10 13:00:00 32 5 Sudoeste 12 Oeste 0 -- -- 25
2020-07-10 12:00:00 29.7 6 Sudoeste 10 Oeste 0 -- -- 32
2020-07-10 11:00:00 27 6 Oeste 12 Sudoeste 0 -- -- 40
2020-07-10 10:00:00 22.9 5 Sudoeste 8 Oeste 0 -- -- 51
2020-07-10 09:00:00 20 2 Sur 5 Nordeste 0 -- -- 58
2020-07-10 08:00:00 16.5 0 Calma 6 Este 0 -- -- 68
2020-07-10 07:00:00 16.5 3 Este 8 Sur 0 -- -- 65
2020-07-10 06:00:00 16.8 0 Calma 8 Sur 0 -- -- 66
2020-07-10 05:00:00 17.6 0 Calma 5 Sur 0 -- -- 67
2020-07-10 04:00:00 18.6 2 Sur 8 Sudeste 0 -- -- 68
2020-07-10 03:00:00 19.3 8 Sudeste 10 Sudeste 0 -- -- 60
2020-07-10 02:00:00 21.1 4 Norte 10 Norte 0 -- -- 60
2020-07-10 01:00:00 22.3 2 Este 6 Oeste 0 -- -- 48
2020-07-10 00:00:00 23.8 4 Sur 14 Sur 0 -- -- 43
2020-07-09 23:00:00 26.9 5 Sudoeste 14 Sudoeste 0 -- -- 37
2020-07-09 22:00:00 28 8 Noroeste 17 Oeste 0 -- -- 39
2020-07-09 21:00:00 30.4 16 Noroeste 24 Oeste 0 -- -- 32
2020-07-09 20:00:00 32.2 14 Oeste 28 Noroeste 0 -- -- 29
2020-07-09 19:00:00 33.1 13 Noroeste 30 Noroeste 0 -- -- 27
2020-07-09 18:00:00 33.1 13 Noroeste 32 Norte 0 -- -- 27
2020-07-09 17:00:00 33.2 20 Noroeste 33 Noroeste 0 -- -- 28
2020-07-09 16:00:00 33.6 4 Sudoeste 19 Sudoeste 0 -- -- 26
2020-07-09 15:00:00 32 7 Oeste 17 Nordeste 0 -- -- 29
2020-07-09 14:00:00 30.8 6 Norte 19 Noroeste 0 -- -- 34
2020-07-09 13:00:00 29.3 7 Norte 18 Norte 0 -- -- 40
2020-07-09 12:00:00 26.7 8 Oeste 20 Norte 0 -- -- 45
2020-07-09 11:00:00 25.1 13 Norte 22 Norte 0 -- -- 53
2020-07-09 10:00:00 22.9 11 Norte 21 Norte 0 -- -- 57
2020-07-09 09:00:00 21 14 Norte 20 Norte 0 -- -- 61
2020-07-09 08:00:00 18.5 11 Norte 15 Nordeste 0 -- -- 68
2020-07-09 07:00:00 17.8 12 Nordeste 17 Norte 0 -- -- 69
2020-07-09 06:00:00 18.5 9 Nordeste 12 Nordeste 0 -- -- 63
2020-07-09 05:00:00 19 3 Noroeste 8 Sur 0 -- -- 62
2020-07-09 04:00:00 20.1 8 Sur 10 Sur 0 -- -- 62
2020-07-09 03:00:00 20.9 8 Sur 10 Sur 0 -- -- 59
2020-07-09 02:00:00 22.1 4 Sur 7 Sur 0 -- -- 53
2020-07-09 01:00:00 23 3 Sur 21 Sur 0 -- -- 48
2020-07-09 00:00:00 24.4 17 Sur 29 Sur 0 -- -- 40
2020-07-08 23:00:00 26.4 12 Sur 28 Sur 0 -- -- 31
2020-07-08 22:00:00 27.6 21 Sur 36 Sur 0 -- -- 26
2020-07-08 21:00:00 29.9 23 Sur 38 Sur 0 -- -- 23
2020-07-08 20:00:00 32 26 Sur 40 Sur 0 -- -- 20
2020-07-08 19:00:00 33.5 27 Sur 39 Sur 0 -- -- 18
2020-07-08 18:00:00 33.2 27 Sur 46 Sudeste 0 -- -- 19
2020-07-08 17:00:00 33.7 30 Sur 44 Sur 0 -- -- 20
2020-07-08 16:00:00 34 29 Sur 44 Sur 0 -- -- 20
2020-07-08 15:00:00 33.8 26 Sur 45 Sur 0 -- -- 21
2020-07-08 14:00:00 33.2 29 Sur 46 Sur 0 -- -- 22
2020-07-08 13:00:00 33.4 31 Sur 46 Sur 0 -- -- 20
2020-07-08 12:00:00 32.1 30 Sur 55 Sur 0 -- -- 21
2020-07-08 11:00:00 30.6 41 Sur 58 Sur 0 -- -- 24
2020-07-08 10:00:00 29.6 36 Sur 53 Sur 0 -- -- 24
2020-07-08 09:00:00 28.2 14 Sur 33 Sudoeste 0 -- -- 30
2020-07-08 08:00:00 27.4 16 Sur 37 Sur 0 -- -- 28
2020-07-08 07:00:00 26.1 12 Sur 28 Sur 0 -- -- 32
2020-07-08 06:00:00 25.3 4 Sur 22 Sudoeste 0 -- -- 38
2020-07-08 05:00:00 26.1 15 Oeste 34 Sur 0 -- -- 36
2020-07-08 04:00:00 23.9 5 Sur 11 Noroeste 0 -- -- 44
2020-07-08 03:00:00 25.5 8 Sur 14 Sur 0 -- -- 39
2020-07-08 02:00:00 26.9 11 Sur 18 Sudoeste 0 -- -- 37
2020-07-08 01:00:00 27.5 12 Sur 15 Sur 0 -- -- 35
2020-07-08 00:00:00 28.7 9 Sur 12 Sudoeste 0 -- -- 33
2020-07-07 23:00:00 30.8 10 Sur 15 Sur 0 -- -- 28
2020-07-07 22:00:00 32.9 12 Sur 15 Sudeste 0 -- -- 25
2020-07-07 21:00:00 37.1 5 Sudoeste 16 Noroeste 0 -- -- 21
2020-07-07 20:00:00 39.4 9 Noroeste 19 Noroeste 0 -- -- 14
2020-07-07 19:00:00 40 13 Noroeste 26 Noroeste 0 -- -- 14
2020-07-07 18:00:00 40.4 8 Oeste 36 Noroeste 0 -- -- 14
2020-07-07 17:00:00 40.5 18 Noroeste 30 Noroeste 0 -- -- 15
2020-07-07 16:00:00 40.5 19 Noroeste 33 Noroeste 0 -- -- 15
2020-07-07 15:00:00 40.4 6 Sudoeste 25 Sudoeste 0 -- -- 14
2020-07-07 14:00:00 38.9 6 Sudoeste 16 Sudoeste 0 -- -- 15
2020-07-07 13:00:00 37.1 6 Sudoeste 14 Sudoeste 0 -- -- 20
2020-07-07 12:00:00 34.3 7 Sudoeste 15 Sur 0 -- -- 23
2020-07-07 11:00:00 30.1 6 Sudoeste 10 Sudoeste 0 -- -- 32
2020-07-07 10:00:00 26.1 3 Sudoeste 5 Sudoeste 0 -- -- 39
2020-07-07 09:00:00 22.6 3 Sur 4 Sudoeste 0 -- -- 46
2020-07-07 08:00:00 20.2 2 Sudeste 6 Sur 0 -- -- 53
2020-07-07 07:00:00 20 4 Sudeste 6 Sudeste 0 -- -- 50
2020-07-07 06:00:00 20.7 3 Sudeste 11 Sudoeste 0 -- -- 49
2020-07-07 05:00:00 21.1 3 Sudoeste 12 Sur 0 -- -- 46
2020-07-07 04:00:00 21.5 8 Sudeste 9 Sudeste 0 -- -- 47
2020-07-07 03:00:00 23.3 6 Sudoeste 11 Sudoeste 0 -- -- 43
2020-07-07 02:00:00 23.7 7 Sur 12 Sur 0 -- -- 41
2020-07-07 01:00:00 24.7 9 Sur 18 Sudoeste 0 -- -- 39
2020-07-07 00:00:00 27.4 10 Sudoeste 19 Sudoeste 0 -- -- 34
2020-07-06 23:00:00 29.4 14 Sudoeste 25 Sudoeste 0 -- -- 32
2020-07-06 22:00:00 29.9 14 Sur 22 Sur 0 -- -- 31
2020-07-06 21:00:00 33.4 16 Sur 26 Sur 0 -- -- 25
2020-07-06 20:00:00 36.7 18 Sur 27 Sur 0 -- -- 21
2020-07-06 19:00:00 39.1 9 Sur 25 Sudoeste 0 -- -- 16
2020-07-06 18:00:00 39.5 15 Norte 27 Norte 0 -- -- 14
2020-07-06 17:00:00 39.5 7 Noroeste 25 Noroeste 0 -- -- 15
2020-07-06 16:00:00 39.1 9 Norte 20 Norte 0 -- -- 16
2020-07-06 15:00:00 38 9 Oeste 20 Oeste 0 -- -- 17
2020-07-06 14:00:00 36.4 8 Sudoeste 13 Sudoeste 0 -- -- 19
2020-07-06 13:00:00 34.6 7 Oeste 12 Sudoeste 0 -- -- 20
2020-07-06 12:00:00 31.8 5 Sudoeste 9 Sudoeste 0 -- -- 24
2020-07-06 11:00:00 28.3 6 Oeste 9 Oeste 0 -- -- 33
2020-07-06 10:00:00 25.1 0 Calma 5 Oeste 0 -- -- 44
2020-07-06 09:00:00 21.5 3 Sur 5 Sudoeste 0 -- -- 54
2020-07-06 08:00:00 18.6 3 Sur 8 Sur 0 -- -- 60
2020-07-06 07:00:00 18 5 Sur 10 Sudeste 0 -- -- 61
2020-07-06 06:00:00 18.6 5 Sur 6 Sur 0 -- -- 60
2020-07-06 05:00:00 19.1 3 Sudoeste 7 Sudoeste 0 -- -- 54
2020-07-06 04:00:00 20.5 7 Sudoeste 11 Sudoeste 0 -- -- 50
2020-07-06 03:00:00 21.6 6 Sudoeste 17 Sur 0 -- -- 47
2020-07-06 02:00:00 21.3 12 Sur 16 Sur 0 -- -- 47
2020-07-06 01:00:00 22.3 7 Sur 12 Sudoeste 0 -- -- 44
2020-07-06 00:00:00 24.5 6 Sur 22 Sur 0 -- -- 38
2020-07-05 23:00:00 25.7 13 Sur 21 Sur 0 -- -- 33
2020-07-05 22:00:00 27.4 12 Sur 28 Sur 0 -- -- 29
2020-07-05 21:00:00 30.4 20 Sur 36 Sur 0 -- -- 21
2020-07-05 20:00:00 32.6 20 Sur 39 Sur 0 -- -- 20
2020-07-05 19:00:00 33.5 23 Sur 43 Sur 0 -- -- 21
2020-07-05 18:00:00 33.2 28 Sur 40 Sur 0 -- -- 25
2020-07-05 17:00:00 33.4 25 Sur 46 Sur 0 -- -- 27
2020-07-05 16:00:00 33 27 Sur 45 Sur 0 -- -- 29
2020-07-05 15:00:00 32.5 29 Sur 43 Sur 0 -- -- 31
2020-07-05 14:00:00 32.3 30 Sur 46 Sur 0 -- -- 31
2020-07-05 13:00:00 30.9 26 Sur 39 Sur 0 -- -- 35
2020-07-05 12:00:00 29.6 25 Sur 36 Sur 0 -- -- 39
2020-07-05 11:00:00 27.8 20 Sur 30 Sur 0 -- -- 44
2020-07-05 10:00:00 26.2 21 Sur 37 Sur 0 -- -- 47
2020-07-05 09:00:00 24.1 24 Sur 35 Sur 0 -- -- 54
2020-07-05 08:00:00 22.2 13 Sudeste 28 Sur 0 -- -- 64
2020-07-05 07:00:00 21.1 22 Sur 31 Sudeste 0 -- -- 72
2020-07-05 06:00:00 20.7 6 Sur 13 Sudeste 0 -- -- 72
2020-07-05 05:00:00 21.2 3 Oeste 19 Sudoeste 0 -- -- 68
2020-07-05 04:00:00 21.8 10 Sudoeste 14 Sudoeste 0 -- -- 67
2020-07-05 03:00:00 22.4 8 Sudoeste 20 Sudoeste 0 -- -- 67
2020-07-05 02:00:00 23.2 10 Sudoeste 22 Sudoeste 0 -- -- 63
2020-07-05 01:00:00 23.1 9 Sur 28 Sudoeste 0 -- -- 65
2020-07-05 00:00:00 24.1 17 Sudoeste 25 Sudoeste 0 -- -- 59
2020-07-04 23:00:00 25 15 Sudoeste 26 Sudoeste 0 -- -- 53
2020-07-04 22:00:00 26.7 13 Sur 24 Sur 0 -- -- 43
2020-07-04 21:00:00 29.3 18 Sur 36 Sur 0 -- -- 31
2020-07-04 20:00:00 30.4 26 Sur 39 Sur 0 -- -- 30
2020-07-04 19:00:00 31.7 24 Sur 36 Sur 0 -- -- 31
2020-07-04 18:00:00 32.8 20 Sur 34 Sur 0 -- -- 33
2020-07-04 17:00:00 33.1 20 Sur 31 Sur 0 -- -- 35
2020-07-04 16:00:00 32.7 19 Sur 33 Sur 0 -- -- 35
2020-07-04 15:00:00 31.5 18 Sur 33 Sur 0 -- -- 38
2020-07-04 14:00:00 30.9 19 Sur 30 Sur 0 -- -- 40
2020-07-04 13:00:00 29.3 21 Sur 32 Sur 0 -- -- 47
2020-07-04 12:00:00 27.8 23 Sur 33 Sur 0 -- -- 53
2020-07-04 11:00:00 26 22 Sur 30 Sudoeste 0 -- -- 59
2020-07-04 10:00:00 25.1 11 Sur 18 Sur 0 -- -- 63
2020-07-04 09:00:00 22.1 7 Sudoeste 12 Sudoeste 0 -- -- 75
2020-07-04 08:00:00 19.8 4 Sudoeste 11 Sudeste 0 -- -- 84
2020-07-04 07:00:00 19.1 6 Sur 10 Sur 0 -- -- 88
2020-07-04 06:00:00 19.6 5 Sudeste 12 Sur 0 -- -- 82
2020-07-04 05:00:00 20.8 6 Sur 14 Sudoeste 0 -- -- 75
2020-07-04 04:00:00 21.4 5 Sudoeste 12 Sudoeste 0 -- -- 74
2020-07-04 03:00:00 22.4 8 Sudoeste 17 Sudoeste 0 -- -- 68
2020-07-04 02:00:00 22.8 13 Sudoeste 19 Sudoeste 0 -- -- 66
2020-07-04 01:00:00 22.8 10 Sudoeste 17 Sur 0 -- -- 65
2020-07-04 00:00:00 23.9 9 Sur 18 Sur 0 -- -- 61
2020-07-03 23:00:00 25.6 9 Sur 15 Sur 0 -- -- 54
2020-07-03 22:00:00 28.9 8 Sur 18 Oeste 0 -- -- 42
2020-07-03 21:00:00 32 12 Noroeste 20 Noroeste 0 -- -- 19
2020-07-03 20:00:00 34 6 Sur 21 Noroeste 0 -- -- 30
2020-07-03 19:00:00 34.2 12 Sudoeste 26 Noroeste 0 -- -- 19
2020-07-03 18:00:00 34.3 13 Oeste 27 Oeste 0 -- -- 19
2020-07-03 17:00:00 34.6 5 Norte 24 Oeste 0 -- -- 19
2020-07-03 16:00:00 34.5 7 Noroeste 20 Noroeste 0 -- -- 17
2020-07-03 15:00:00 33.1 6 Oeste 22 Noroeste 0 -- -- 19
2020-07-03 14:00:00 32.2 4 Oeste 20 Sudoeste 0 -- -- 19
2020-07-03 13:00:00 31.2 4 Sur 12 Sudoeste 0 -- -- 24
2020-07-03 12:00:00 28.8 5 Sudoeste 11 Sudoeste 0 -- -- 30
2020-07-03 11:00:00 26.8 5 Sudoeste 9 Nordeste 0 -- -- 35
2020-07-03 10:00:00 24.7 4 Norte 7 Nordeste 0 -- -- 41
2020-07-03 09:00:00 20.9 2 Noroeste 4 Noroeste 0 -- -- 54
2020-07-03 08:00:00 18 0 Calma 7 Sudeste 0 -- -- 61
2020-07-03 07:00:00 17.1 5 Sudeste 8 Noroeste 0 -- -- 67
2020-07-03 06:00:00 18.5 3 Sudeste 8 Nordeste 0 -- -- 58
2020-07-03 05:00:00 18.7 2 Noroeste 8 Sudeste 0 -- -- 55
2020-07-03 04:00:00 20.7 5 Sudeste 8 Este 0 -- -- 55
2020-07-03 03:00:00 22.3 3 Sudeste 14 Este 0 -- -- 49
2020-07-03 02:00:00 24 8 Oeste 21 Oeste 0 -- -- 43
2020-07-03 01:00:00 24.9 15 Noroeste 30 Oeste 0 -- -- 40
2020-07-03 00:00:00 26 13 Oeste 30 Oeste 0 -- -- 35
2020-07-02 23:00:00 27.2 11 Oeste 26 Oeste 0 -- -- 33
2020-07-02 22:00:00 29.3 24 Oeste 34 Oeste 0 -- -- 29
2020-07-02 21:00:00 31.6 21 Oeste 33 Oeste 0 -- -- 25
2020-07-02 20:00:00 33 17 Noroeste 31 Oeste 0 -- -- 21
2020-07-02 19:00:00 33.8 19 Oeste 39 Oeste 0 -- -- 15
2020-07-02 18:00:00 33.8 20 Noroeste 36 Oeste 0 -- -- 18
2020-07-02 17:00:00 33.9 17 Noroeste 38 Oeste 0 -- -- 21
2020-07-02 16:00:00 33.8 18 Noroeste 35 Noroeste 0 -- -- 23
2020-07-02 15:00:00 33 14 Noroeste 30 Noroeste 0 -- -- 24
2020-07-02 14:00:00 32.8 13 Noroeste 24 Noroeste 0 -- -- 25
2020-07-02 13:00:00 31.8 7 Norte 19 Noroeste 0 -- -- 29
2020-07-02 12:00:00 30.7 8 Norte 18 Norte 0 -- -- 32
2020-07-02 11:00:00 28.1 4 Nordeste 10 Norte 0 -- -- 39
2020-07-02 10:00:00 24.7 3 Sudoeste 6 Sudoeste 0 -- -- 46
2020-07-02 09:00:00 20.9 2 Norte 5 Noroeste 0 -- -- 55
2020-07-02 08:00:00 17.5 0 Calma 7 Sudeste 0 -- -- 61
2020-07-02 07:00:00 17.1 2 Sudeste 8 Nordeste 0 -- -- 65
2020-07-02 06:00:00 19.1 3 Sudeste 6 Nordeste 0 -- -- 60
2020-07-02 05:00:00 18.2 2 Este 9 Nordeste 0 -- -- 58
2020-07-02 04:00:00 18.4 7 Nordeste 9 Nordeste 0 -- -- 56
2020-07-02 03:00:00 19 5 Norte 8 Norte 0 -- -- 55
2020-07-02 02:00:00 20.5 0 Calma 6 Norte 0 -- -- 55
2020-07-02 01:00:00 23.1 3 Sur 9 Sudoeste 0 -- -- 49
2020-07-02 00:00:00 24.9 5 Sudeste 9 Norte 0 -- -- 44
2020-07-01 23:00:00 27 6 Norte 10 Nordeste 0 -- -- 39
2020-07-01 22:00:00 29.6 9 Noroeste 22 Noroeste 0 -- -- 33
2020-07-01 21:00:00 32.3 11 Noroeste 27 Noroeste 0 -- -- 27
2020-07-01 20:00:00 34.4 13 Noroeste 30 Noroeste 0 -- -- 22
2020-07-01 19:00:00 35.2 16 Noroeste 31 Noroeste 0 -- -- 19
2020-07-01 18:00:00 35.4 15 Noroeste 28 Noroeste 0 -- -- 18
2020-07-01 17:00:00 35.5 13 Norte 30 Oeste 0 -- -- 18
2020-07-01 16:00:00 34.9 12 Noroeste 24 Noroeste 0 -- -- 19
2020-07-01 15:00:00 33.8 11 Noroeste 25 Noroeste 0 -- -- 20
2020-07-01 14:00:00 33.2 8 Noroeste 25 Noroeste 0 -- -- 23
2020-07-01 13:00:00 32.2 5 Norte 15 Oeste 0 -- -- 28
2020-07-01 12:00:00 30.5 4 Noroeste 12 Noroeste 0 -- -- 32
2020-07-01 11:00:00 28.5 3 Sudeste 8 Norte 0 -- -- 36
2020-07-01 10:00:00 24.6 3 Sudoeste 6 Sudoeste 0 -- -- 53
2020-07-01 09:00:00 20.8 2 Noroeste 4 Sudoeste 0 -- -- 66
2020-07-01 08:00:00 17.9 0 Calma 3 Noroeste 0 -- -- 73
2020-07-01 07:00:00 17.2 2 Noroeste 6 Este 0 -- -- 72
2020-07-01 06:00:00 18.8 2 Sur 8 Norte 0 -- -- 70
2020-07-01 05:00:00 19.2 4 Sudoeste 9 Este 0 -- -- 64
2020-07-01 04:00:00 20 4 Nordeste 10 Norte 0 -- -- 65
2020-07-01 03:00:00 20.7 4 Norte 9 Noroeste 0 -- -- 66
2020-07-01 02:00:00 21.8 7 Sudeste 9 Sudeste 0 -- -- 65
2020-07-01 01:00:00 23.3 3 Sudoeste 10 Sudeste 0 -- -- 57
2020-07-01 00:00:00 24.7 7 Sudeste 11 Sudeste 0 -- -- 55
2020-06-30 23:00:00 26.9 2 Nordeste 15 Oeste 0 -- -- 53
2020-06-30 22:00:00 28.7 11 Oeste 25 Oeste 0 -- -- 47
2020-06-30 21:00:00 31.7 16 Oeste 30 Noroeste 0 -- -- 39
2020-06-30 20:00:00 34.2 14 Sudeste 24 Sudeste 0 -- -- 27
2020-06-30 19:00:00 36 10 Sur 19 Sur 0 -- -- 22
2020-06-30 18:00:00 36.1 13 Sudeste 29 Sur 0 -- -- 21
2020-06-30 17:00:00 36.1 19 Sudeste 30 Sur 0 -- -- 20
2020-06-30 16:00:00 36.1 14 Sur 33 Sudeste 0 -- -- 19
2020-06-30 15:00:00 34.9 21 Sur 32 Sudeste 0 -- -- 21
2020-06-30 14:00:00 34.2 20 Sur 31 Sur 0 -- -- 21
2020-06-30 13:00:00 33.3 14 Sur 28 Sur 0 -- -- 23
2020-06-30 12:00:00 31.9 16 Sur 25 Sur 0 -- -- 25
2020-06-30 11:00:00 30.3 12 Sur 24 Sur 0 -- -- 27
2020-06-30 10:00:00 26.1 4 Sur 8 Sudeste 0 -- -- 34
2020-06-30 09:00:00 22.1 0 Calma 4 Noroeste 0 -- -- 43
2020-06-30 08:00:00 19.2 4 Norte 8 Noroeste 0 -- -- 47
2020-06-30 07:00:00 19.5 0 Calma 9 Nordeste 0 -- -- 45
2020-06-30 06:00:00 20.7 7 Nordeste 12 Nordeste 0 -- -- 41
2020-06-30 05:00:00 21.5 6 Norte 13 Sudoeste 0 -- -- 39
2020-06-30 04:00:00 23.1 4 Sur 13 Oeste 0 -- -- 36
2020-06-30 03:00:00 23.2 7 Sudoeste 19 Sudoeste 0 -- -- 36
2020-06-30 02:00:00 24.9 9 Sudoeste 41 Sur 0 -- -- 34
2020-06-30 01:00:00 24.8 11 Sudoeste 22 Sur 0 -- -- 36
2020-06-30 00:00:00 25.5 14 Sur 27 Sur 0 -- -- 31
2020-06-29 23:00:00 26.9 14 Sur 22 Sur 0 -- -- 28
2020-06-29 22:00:00 28.8 8 Sur 29 Sur 0 -- -- 23
2020-06-29 21:00:00 31.6 18 Sur 30 Sur 0 -- -- 18
2020-06-29 20:00:00 33.4 23 Sur 36 Sur 0 -- -- 15
2020-06-29 19:00:00 34.5 27 Sur 40 Sur 0 -- -- 13
2020-06-29 18:00:00 35.6 26 Sur 36 Sur 0 -- -- 12
2020-06-29 17:00:00 35.5 25 Sur 36 Sur 0 -- -- 16
2020-06-29 16:00:00 35.6 22 Sur 34 Sur 0 -- -- 16
2020-06-29 15:00:00 35.3 22 Sur 35 Sur 0 -- -- 16
2020-06-29 14:00:00 34.6 15 Sur 31 Sur 0 -- -- 19
2020-06-29 13:00:00 34.6 12 Sur 22 Sudeste 0 -- -- 20
2020-06-29 12:00:00 32.3 4 Noroeste 14 Sudeste 0 -- -- 25
2020-06-29 11:00:00 29.8 7 Sur 15 Sur 0 -- -- 28
2020-06-29 10:00:00 25.4 3 Oeste 8 Sudoeste 0 -- -- 39
2020-06-29 09:00:00 22 3 Oeste 6 Sudoeste 0 -- -- 45
2020-06-29 08:00:00 19.3 0 Calma 4 Sudeste 0 -- -- 50
2020-06-29 07:00:00 19.3 0 Calma 5 Oeste 0 -- -- 48
2020-06-29 06:00:00 19.6 3 Oeste 10 Sur 0 -- -- 49
2020-06-29 05:00:00 20 7 Sur 9 Sudoeste 0 -- -- 48
2020-06-29 04:00:00 21.3 4 Sur 11 Sudoeste 0 -- -- 45
2020-06-29 03:00:00 22.3 6 Sudoeste 9 Sudoeste 0 -- -- 44
2020-06-29 02:00:00 23.3 5 Sur 14 Sudoeste 0 -- -- 41
2020-06-29 01:00:00 23.6 7 Sur 14 Sur 0 -- -- 41
2020-06-29 00:00:00 24.4 8 Sur 14 Sur 0 -- -- 39
2020-06-28 23:00:00 26.3 12 Sur 15 Sur 0 -- -- 36
2020-06-28 22:00:00 28.5 11 Sur 23 Sur 0 -- -- 33
2020-06-28 21:00:00 31.2 17 Sur 27 Sur 0 -- -- 27
2020-06-28 20:00:00 33.4 19 Sur 31 Sur 0 -- -- 24
2020-06-28 19:00:00 35.2 22 Sur 32 Sur 0 -- -- 21
2020-06-28 18:00:00 36.7 12 Sur 27 Sur 0 -- -- 20
2020-06-28 17:00:00 36.5 8 Sudeste 23 Oeste 0 -- -- 20
2020-06-28 16:00:00 36.1 11 Noroeste 20 Noroeste 0 -- -- 19
2020-06-28 15:00:00 34.9 4 Sudoeste 15 Sudoeste 0 -- -- 20
2020-06-28 14:00:00 34.3 6 Sudoeste 14 Sudoeste 0 -- -- 20
2020-06-28 13:00:00 32.5 6 Sudoeste 12 Sudoeste 0 -- -- 27
2020-06-28 12:00:00 31.2 4 Este 12 Nordeste 0 -- -- 32
2020-06-28 11:00:00 27.5 4 Sudoeste 7 Sudoeste 0 -- -- 42
2020-06-28 10:00:00 23.8 4 Sudoeste 6 Sudoeste 0 -- -- 49
2020-06-28 09:00:00 21 2 Oeste 4 Sudoeste 0 -- -- 54
2020-06-28 08:00:00 18 4 Sur 6 Sur 0 -- -- 64
2020-06-28 07:00:00 16.9 0 Calma 4 Sudeste 0 -- -- 66
2020-06-28 06:00:00 17.6 0 Calma 6 Norte 0 -- -- 68
2020-06-28 05:00:00 19.1 3 Nordeste 6 Norte 0 -- -- 56
2020-06-28 04:00:00 19.7 2 Oeste 6 Sudeste 0 -- -- 60
2020-06-28 03:00:00 20.9 5 Sudeste 9 Sudeste 0 -- -- 58
2020-06-28 02:00:00 21.5 6 Sudeste 9 Este 0 -- -- 58
2020-06-28 01:00:00 23.4 5 Este 8 Este 0 -- -- 49
2020-06-28 00:00:00 24.5 3 Sudeste 14 Noroeste 0 -- -- 44
2020-06-27 23:00:00 25.9 9 Noroeste 13 Noroeste 0 -- -- 38
2020-06-27 22:00:00 27.8 10 Noroeste 17 Oeste 0 -- -- 34
2020-06-27 21:00:00 31.1 11 Noroeste 25 Noroeste 0 -- -- 26
2020-06-27 20:00:00 32.2 14 Noroeste 27 Noroeste 0 -- -- 24
2020-06-27 19:00:00 32.5 14 Noroeste 24 Oeste 0 -- -- 25
2020-06-27 18:00:00 32.4 13 Oeste 26 Noroeste 0 -- -- 25
2020-06-27 17:00:00 32.1 13 Oeste 27 Noroeste 0 -- -- 24
2020-06-27 16:00:00 31.5 12 Oeste 28 Noroeste 0 -- -- 25
2020-06-27 15:00:00 31.2 9 Norte 26 Norte 0 -- -- 24
2020-06-27 14:00:00 30.4 10 Norte 23 Noroeste 0 -- -- 26
2020-06-27 13:00:00 29.5 12 Norte 23 Norte 0 -- -- 28
2020-06-27 12:00:00 27.6 8 Norte 18 Norte 0 -- -- 37
2020-06-27 11:00:00 25.3 5 Norte 14 Norte 0 -- -- 43
2020-06-27 10:00:00 23 4 Nordeste 12 Norte 0 -- -- 46
2020-06-27 09:00:00 19.9 3 Nordeste 5 Nordeste 0 -- -- 55
2020-06-27 08:00:00 16.2 4 Norte 4 Nordeste 0 -- -- 63
2020-06-27 07:00:00 14.4 0 Calma 4 Norte 0 -- -- 68
2020-06-27 06:00:00 14.4 0 Calma 3 Noroeste 0 -- -- 61
2020-06-27 05:00:00 15.6 0 Calma 4 Norte 0 -- -- 59
2020-06-27 04:00:00 16.6 0 Calma 8 Noroeste 0 -- -- 59
2020-06-27 03:00:00 17.7 3 Norte 7 Sudeste 0 -- -- 55
2020-06-27 02:00:00 19.4 2 Noroeste 10 Norte 0 -- -- 52
2020-06-27 01:00:00 21.3 4 Oeste 15 Oeste 0 -- -- 44
2020-06-27 00:00:00 22.6 10 Sudoeste 18 Sudoeste 0 -- -- 40
2020-06-26 23:00:00 23.8 7 Oeste 17 Oeste 0 -- -- 37
2020-06-26 22:00:00 25 12 Oeste 27 Oeste 0 -- -- 37
2020-06-26 21:00:00 27.6 17 Noroeste 31 Noroeste 0 -- -- 37
2020-06-26 20:00:00 29.2 18 Noroeste 33 Noroeste 0 -- -- 32
2020-06-26 19:00:00 29.8 18 Noroeste 32 Noroeste 0 -- -- 34
2020-06-26 18:00:00 30.1 18 Noroeste 34 Oeste 0 -- -- 35
2020-06-26 17:00:00 29.8 13 Noroeste 32 Oeste 0 -- -- 35
2020-06-26 16:00:00 28.7 18 Noroeste 30 Noroeste 0 -- -- 40
2020-06-26 15:00:00 28.2 14 Noroeste 27 Oeste 0 -- -- 43
2020-06-26 14:00:00 27.1 10 Noroeste 25 Oeste 0 -- -- 46
2020-06-26 13:00:00 25.8 11 Oeste 24 Oeste 0 -- -- 53
2020-06-26 12:00:00 24.3 8 Noroeste 17 Noroeste 0 -- -- 59
2020-06-26 11:00:00 22.6 5 Noroeste 12 Noroeste 0 -- -- 65
2020-06-26 10:00:00 21.2 4 Este 12 Nordeste 0 -- -- 71
2020-06-26 09:00:00 19.1 4 Nordeste 9 Nordeste 0 -- -- 82
2020-06-26 08:00:00 17.7 6 Nordeste 13 Nordeste 0 -- -- 89
2020-06-26 07:00:00 16.4 9 Norte 12 Nordeste 0 -- -- 90
2020-06-26 06:00:00 16.6 9 Norte 13 Norte 0 -- -- 87
2020-06-26 05:00:00 17.1 10 Norte 16 Nordeste 0 -- -- 85
2020-06-26 04:00:00 18 5 Norte 9 Norte 0 -- -- 81
2020-06-26 03:00:00 18.7 5 Nordeste 10 Norte 0 -- -- 79
2020-06-26 02:00:00 19.7 5 Norte 8 Norte 0 -- -- 75
2020-06-26 01:00:00 20.9 4 Norte 6 Noroeste 0 -- -- 70
2020-06-26 00:00:00 22 4 Noroeste 12 Norte 0 -- -- 66
2020-06-25 23:00:00 23.5 7 Noroeste 10 Oeste 0 -- -- 62
2020-06-25 22:00:00 25.3 8 Noroeste 22 Noroeste 0 -- -- 57
2020-06-25 21:00:00 28 15 Noroeste 31 Oeste 0 -- -- 49
2020-06-25 20:00:00 30.3 21 Oeste 37 Oeste 0 -- -- 42
2020-06-25 19:00:00 32.7 14 Noroeste 31 Noroeste 0 -- -- 35
2020-06-25 18:00:00 33.7 12 Noroeste 26 Noroeste 0 -- -- 28
2020-06-25 17:00:00 34.2 12 Noroeste 21 Sur 0 -- -- 24
2020-06-25 16:00:00 34.2 7 Sur 23 Sudoeste 0 -- -- 20
2020-06-25 15:00:00 33.3 12 Sur 28 Sudeste 0 -- -- 19
2020-06-25 14:00:00 32.2 16 Sur 27 Sudeste 0 -- -- 24
2020-06-25 13:00:00 30.2 6 Sudoeste 16 Sudoeste 0 -- -- 28
2020-06-25 12:00:00 28.1 4 Oeste 11 Este 0 -- -- 32
2020-06-25 11:00:00 26.3 5 Sudoeste 10 Oeste 0 -- -- 38
2020-06-25 10:00:00 24.9 3 Sudeste 6 Nordeste 0 -- -- 42
2020-06-25 09:00:00 21.2 2 Nordeste 5 Noroeste 0 -- -- 52
2020-06-25 08:00:00 18.3 5 Este 9 Sudeste 0 -- -- 60
2020-06-25 07:00:00 17.2 5 Norte 9 Norte 0 -- -- 59
2020-06-25 06:00:00 18.1 3 Nordeste 8 Sudoeste 0 -- -- 57
2020-06-25 05:00:00 19.2 5 Oeste 13 Sur 0 -- -- 52
2020-06-25 04:00:00 20.3 8 Sur 35 Sur 0 -- -- 52
2020-06-25 03:00:00 21.4 19 Sudoeste 33 Sur 0 -- -- 46
2020-06-25 02:00:00 21.6 9 Sudoeste 29 Sur 0 -- -- 45
2020-06-25 01:00:00 22.5 12 Sur 35 Sur 0 -- -- 44
2020-06-25 00:00:00 22.9 22 Sur 36 Sur 0 -- -- 42
2020-06-24 23:00:00 23.6 23 Sur 47 Sur 0 -- -- 41
2020-06-24 22:00:00 25.5 16 Sur 34 Sur 0 -- -- 37
2020-06-24 21:00:00 28.4 21 Sur 35 Sur 0 -- -- 29
2020-06-24 20:00:00 31.2 21 Sur 34 Sur 0 -- -- 24
2020-06-24 19:00:00 32.4 20 Sur 33 Sur 0 -- -- 23
2020-06-24 18:00:00 32.6 22 Sur 36 Sur 0 -- -- 25
2020-06-24 17:00:00 33.2 19 Sur 36 Sur 0 -- -- 25
2020-06-24 16:00:00 32.8 21 Sur 36 Sudoeste 0 -- -- 25
2020-06-24 15:00:00 32.6 20 Sur 35 Sur 0 -- -- 28
2020-06-24 14:00:00 32.8 17 Sur 32 Sur 0 -- -- 28
2020-06-24 13:00:00 31.6 9 Oeste 17 Oeste 0 -- -- 28
2020-06-24 12:00:00 29.6 7 Oeste 12 Oeste 0 -- -- 34
2020-06-24 11:00:00 27.2 6 Oeste 9 Oeste 0 -- -- 40
2020-06-24 10:00:00 23.6 3 Sudoeste 6 Oeste 0 -- -- 51
2020-06-24 09:00:00 20.8 4 Norte 7 Norte 0 -- -- 58
2020-06-24 08:00:00 17.7 3 Norte 7 Norte 0 -- -- 64
2020-06-24 07:00:00 17.9 4 Sur 8 Sur 0 -- -- 64
2020-06-24 06:00:00 18.9 3 Sudoeste 12 Sur 0 -- -- 60
2020-06-24 05:00:00 19.6 8 Sur 13 Sudoeste 0 -- -- 57
2020-06-24 04:00:00 20.4 5 Sudeste 12 Sudeste 0 -- -- 55
2020-06-24 03:00:00 21.7 6 Sudeste 20 Sudoeste 0 -- -- 53
2020-06-24 02:00:00 23.5 14 Sudoeste 22 Sudoeste 0 -- -- 45
2020-06-24 01:00:00 23.5 13 Sudoeste 35 Sudoeste 0 -- -- 46
2020-06-24 00:00:00 24 19 Sudoeste 35 Sudoeste 0 -- -- 45
2020-06-23 23:00:00 23.5 15 Sur 37 Sur 0 -- -- 46
2020-06-23 22:00:00 25.6 30 Sur 40 Sur 0 -- -- 39
2020-06-23 21:00:00 29.7 15 Sur 28 Sur 0 -- -- 29
2020-06-23 20:00:00 31.6 18 Sur 31 Sur 0 -- -- 25
2020-06-23 19:00:00 32.7 18 Sur 46 Sur 0 -- -- 23
2020-06-23 18:00:00 32.7 33 Sur 51 Sur 0 -- -- 23
2020-06-23 17:00:00 34 28 Sur 49 Sudeste 0 -- -- 22
2020-06-23 16:00:00 34.1 30 Sur 48 Sur 0 -- -- 22
2020-06-23 15:00:00 34.2 30 Sur 45 Sur 0 -- -- 22
2020-06-23 14:00:00 33.9 29 Sur 43 Sur 0 -- -- 22
2020-06-23 13:00:00 33.6 21 Sur 43 Sur 0 -- -- 22
2020-06-23 12:00:00 31.9 24 Sur 36 Sur 0 -- -- 24
2020-06-23 11:00:00 30.1 19 Sur 28 Sur 0 -- -- 28
2020-06-23 10:00:00 28.2 14 Sur 25 Sur 0 -- -- 31
2020-06-23 09:00:00 25.7 13 Sur 20 Sur 0 -- -- 37
2020-06-23 08:00:00 23.2 10 Sur 17 Sudeste 0 -- -- 43
2020-06-23 07:00:00 21.8 10 Este 24 Sur 0 -- -- 47
2020-06-23 06:00:00 21.9 19 Sur 32 Sur 0 -- -- 46
2020-06-23 05:00:00 21.9 14 Sur 28 Sur 0 -- -- 47
2020-06-23 04:00:00 22.2 18 Sur 25 Sur 0 -- -- 48
2020-06-23 03:00:00 22.3 15 Sur 20 Sur 0 -- -- 47
2020-06-23 02:00:00 22.4 12 Sur 23 Sur 0 -- -- 47
2020-06-23 01:00:00 23.6 8 Sur 16 Sur 0 -- -- 40
2020-06-23 00:00:00 24.1 10 Sur 15 Sudeste 0 -- -- 37
2020-06-22 23:00:00 26.1 3 Sudeste 27 Sur 0 -- -- 30
2020-06-22 22:00:00 27.9 20 Sur 32 Sur 0 -- -- 26
2020-06-22 21:00:00 30.1 19 Sur 33 Sur 0 -- -- 22
2020-06-22 20:00:00 31.8 25 Sur 40 Sur 0 -- -- 20
2020-06-22 19:00:00 33.1 27 Sur 42 Sur 0 -- -- 18
2020-06-22 18:00:00 34 26 Sur 42 Sur 0 -- -- 17
2020-06-22 17:00:00 34.2 29 Sur 49 Sur 0 -- -- 17
2020-06-22 16:00:00 33.9 30 Sur 47 Sur 0 -- -- 18
2020-06-22 15:00:00 33.8 23 Sur 44 Sur 0 -- -- 20
2020-06-22 14:00:00 33.1 27 Sur 45 Sur 0 -- -- 22
2020-06-22 13:00:00 32.4 26 Sudeste 40 Sur 0 -- -- 25
2020-06-22 12:00:00 31 21 Sur 31 Sur 0 -- -- 28
2020-06-22 11:00:00 30.4 17 Sur 23 Sur 0 -- -- 27
2020-06-22 10:00:00 27.1 13 Sur 21 Sur 0 -- -- 31
2020-06-22 09:00:00 21 5 Sudoeste 8 Sudoeste 0 -- -- 47
2020-06-22 08:00:00 18.5 3 Sur 5 Sudeste 0 -- -- 55
2020-06-22 07:00:00 17.2 3 Sur 4 Sur 0 -- -- 56
2020-06-22 06:00:00 17.7 0 Calma 3 Este 0 -- -- 53
2020-06-22 05:00:00 18.6 2 Sudoeste 4 Noroeste 0 -- -- 50
2020-06-22 04:00:00 20 3 Sur 6 Sur 0 -- -- 48
2020-06-22 03:00:00 20.7 3 Sur 8 Sur 0 -- -- 48
2020-06-22 02:00:00 21.4 3 Nordeste 13 Norte 0 -- -- 44
2020-06-22 01:00:00 23.7 4 Sudoeste 10 Sur 0 -- -- 38
2020-06-22 00:00:00 24.3 8 Sur 12 Sur 0 -- -- 37
2020-06-21 23:00:00 26.7 9 Sudoeste 12 Sudoeste 0 -- -- 32
2020-06-21 22:00:00 29.4 8 Sur 15 Sur 0 -- -- 27
2020-06-21 21:00:00 33.6 9 Sur 14 Noroeste 0 -- -- 21
2020-06-21 20:00:00 35.8 8 Noroeste 20 Noroeste 0 -- -- 15
2020-06-21 19:00:00 36.2 5 Sudeste 14 Sudoeste 0 -- -- 14
2020-06-21 18:00:00 36.3 4 Sudoeste 13 Oeste 0 -- -- 13
2020-06-21 17:00:00 36 6 Sudoeste 16 Sudoeste 0 -- -- 14
2020-06-21 16:00:00 35.1 9 Noroeste 23 Noroeste 0 -- -- 15
2020-06-21 15:00:00 34.3 11 Oeste 21 Noroeste 0 -- -- 18
2020-06-21 14:00:00 33.6 6 Oeste 21 Nordeste 0 -- -- 20
2020-06-21 13:00:00 32.2 9 Norte 20 Noroeste 0 -- -- 23
2020-06-21 12:00:00 30.6 5 Noroeste 14 Nordeste 0 -- -- 25
2020-06-21 11:00:00 28.5 3 Este 8 Este 0 -- -- 29
2020-06-21 10:00:00 23.1 3 Noroeste 5 Norte 0 -- -- 42
2020-06-21 09:00:00 19.6 2 Sudoeste 4 Sur 0 -- -- 52
2020-06-21 08:00:00 16.2 0 Calma 2 Oeste 0 -- -- 61
2020-06-21 07:00:00 15.3 0 Calma 4 Oeste 0 -- -- 66
2020-06-21 06:00:00 15.4 0 Calma 5 Sur 0 -- -- 62
2020-06-21 05:00:00 16.6 0 Calma 6 Norte 0 -- -- 56
2020-06-21 04:00:00 17 5 Norte 8 Norte 0 -- -- 54
2020-06-21 03:00:00 19.2 0 Calma 6 Sudoeste 0 -- -- 49
2020-06-21 02:00:00 20.6 0 Calma 6 Sudeste 0 -- -- 47
2020-06-21 01:00:00 21.7 5 Sur 11 Sudoeste 0 -- -- 46
2020-06-21 00:00:00 23.1 7 Sur 14 Sur 0 -- -- 41
2020-06-20 23:00:00 24 9 Sudeste 13 Sur 0 -- -- 38
2020-06-20 22:00:00 27.2 9 Sur 17 Sur 0 -- -- 31
2020-06-20 21:00:00 30.4 13 Sur 20 Sudeste 0 -- -- 25
2020-06-20 20:00:00 32.2 14 Sur 28 Sur 0 -- -- 22
2020-06-20 19:00:00 33.3 14 Sur 28 Sur 0 -- -- 21
2020-06-20 18:00:00 34.6 5 Sur 22 Sudoeste 0 -- -- 17
2020-06-20 17:00:00 33.8 6 Oeste 20 Oeste 0 -- -- 16
2020-06-20 16:00:00 33.1 6 Norte 23 Sudoeste 0 -- -- 19
2020-06-20 15:00:00 32.4 13 Sur 25 Sur 0 -- -- 21
2020-06-20 14:00:00 31.6 10 Este 26 Sur 0 -- -- 20
2020-06-20 13:00:00 29.8 6 Oeste 16 Oeste 0 -- -- 30
2020-06-20 12:00:00 28.1 8 Oeste 14 Oeste 0 -- -- 32
2020-06-20 11:00:00 25.3 5 Sudoeste 10 Sudoeste 0 -- -- 41
2020-06-20 10:00:00 21.8 3 Oeste 6 Oeste 0 -- -- 51
2020-06-20 09:00:00 18.4 3 Sudoeste 6 Norte 0 -- -- 59
2020-06-20 08:00:00 15.6 3 Oeste 9 Sudoeste 0 -- -- 68
2020-06-20 07:00:00 14.7 2 Sudoeste 3 Sudoeste 0 -- -- 63
2020-06-20 06:00:00 15.2 0 Calma 4 Sur 0 -- -- 72
2020-06-20 05:00:00 15.6 4 Sur 5 Sur 0 -- -- 66
2020-06-20 04:00:00 16.7 0 Calma 3 Sur 0 -- -- 63
2020-06-20 03:00:00 17.5 0 Calma 5 Norte 0 -- -- 55
2020-06-20 02:00:00 18.9 2 Sur 12 Sur 0 -- -- 54
2020-06-20 01:00:00 19.7 10 Sur 13 Sudoeste 0 -- -- 51
2020-06-20 00:00:00 22.4 7 Sudoeste 12 Oeste 0 -- -- 44
2020-06-19 23:00:00 23.1 6 Oeste 12 Oeste 0 -- -- 43
2020-06-19 22:00:00 24.6 9 Oeste 27 Noroeste 0 -- -- 41
2020-06-19 21:00:00 27.3 17 Noroeste 29 Noroeste 0 -- -- 37
2020-06-19 20:00:00 29.3 15 Noroeste 25 Noroeste 0 -- -- 31
2020-06-19 19:00:00 30.3 10 Norte 21 Noroeste 0 -- -- 28
2020-06-19 18:00:00 30.3 10 Noroeste 27 Oeste 0 -- -- 28
2020-06-19 17:00:00 30.1 8 Oeste 22 Noroeste 0 -- -- 28
2020-06-19 16:00:00 29.3 14 Noroeste 25 Noroeste 0 -- -- 30
2020-06-19 15:00:00 28.7 10 Noroeste 23 Noroeste 0 -- -- 33
2020-06-19 14:00:00 27.7 9 Nordeste 19 Nordeste 0 -- -- 36
2020-06-19 13:00:00 26.3 7 Norte 19 Norte 0 -- -- 38
2020-06-19 12:00:00 24.2 4 Noroeste 16 Noroeste 0 -- -- 42
2020-06-19 11:00:00 22.8 9 Norte 17 Norte 0 -- -- 48
2020-06-19 10:00:00 20.9 4 Oeste 10 Norte 0 -- -- 50
2020-06-19 09:00:00 16.9 3 Sudoeste 4 Sudoeste 0 -- -- 57
2020-06-19 08:00:00 14.1 0 Calma 5 Sur 0 -- -- 66
2020-06-19 07:00:00 12.8 4 Sudoeste 6 Norte 0 -- -- 70
2020-06-19 06:00:00 13.1 5 Norte 9 Noroeste 0 -- -- 67
2020-06-19 05:00:00 14.5 3 Norte 10 Este 0 -- -- 63
2020-06-19 04:00:00 15.8 6 Este 10 Norte 0 -- -- 61
2020-06-19 03:00:00 15.8 8 Norte 10 Nordeste 0 -- -- 53
2020-06-19 02:00:00 16.7 7 Nordeste 10 Nordeste 0 -- -- 52
2020-06-19 01:00:00 18.5 2 Sudeste 8 Oeste 0 -- -- 47
2020-06-19 00:00:00 20.7 6 Oeste 11 Oeste 0 -- -- 40
2020-06-18 23:00:00 22.4 8 Sudoeste 21 Sudoeste 0 -- -- 35
2020-06-18 22:00:00 23.9 12 Oeste 31 Oeste 0 -- -- 30
2020-06-18 21:00:00 26 22 Noroeste 35 Oeste 0 -- -- 27
2020-06-18 20:00:00 27.7 22 Noroeste 44 Noroeste 0 -- -- 25
2020-06-18 19:00:00 28.8 21 Oeste 39 Oeste 0 -- -- 28
2020-06-18 18:00:00 29.5 20 Noroeste 35 Oeste 0 -- -- 28
2020-06-18 17:00:00 30 14 Noroeste 26 Oeste 0 -- -- 26
2020-06-18 16:00:00 29.4 14 Oeste 30 Noroeste 0 -- -- 27
2020-06-18 15:00:00 28.6 7 Noroeste 29 Noroeste 0 -- -- 27
2020-06-18 14:00:00 27.9 8 Noroeste 23 Oeste 0 -- -- 29
2020-06-18 13:00:00 27.4 13 Norte 26 Noroeste 0 -- -- 31
2020-06-18 12:00:00 26.1 4 Sur 12 Norte 0 -- -- 35
2020-06-18 11:00:00 23.9 4 Noroeste 11 Noroeste 0 -- -- 41
2020-06-18 10:00:00 21.3 3 Sudoeste 6 Oeste 0 -- -- 49
2020-06-18 09:00:00 18.1 4 Sudoeste 16 Noroeste 0 -- -- 58
2020-06-18 08:00:00 15.6 9 Sur 10 Sur 0 -- -- 68
2020-06-18 07:00:00 15.2 0 Calma 8 Noroeste 0 -- -- 65
2020-06-18 06:00:00 14.3 4 Nordeste 8 Norte 0 -- -- 74
2020-06-18 05:00:00 15 3 Norte 5 Norte 0 -- -- 66
2020-06-18 04:00:00 15.9 4 Norte 9 Sur 0 -- -- 62
2020-06-18 03:00:00 17.9 7 Sur 11 Sur 0 -- -- 58
2020-06-18 02:00:00 19.6 6 Sudoeste 17 Oeste 0 -- -- 53
2020-06-18 01:00:00 20.8 10 Oeste 23 Oeste 0 -- -- 50
2020-06-18 00:00:00 21.2 10 Oeste 19 Oeste 0 -- -- 50
2020-06-17 23:00:00 22.4 8 Oeste 24 Oeste 0 -- -- 46
2020-06-17 22:00:00 24.3 17 Oeste 26 Oeste 0 -- -- 41
2020-06-17 21:00:00 26.6 13 Noroeste 29 Noroeste 0 -- -- 34
2020-06-17 20:00:00 28 13 Noroeste 28 Oeste 0 -- -- 30
2020-06-17 19:00:00 28.2 13 Oeste 30 Oeste 0 -- -- 30
2020-06-17 18:00:00 28.1 15 Noroeste 33 Noroeste 0 -- -- 30
2020-06-17 17:00:00 27.5 18 Noroeste 32 Oeste 0 -- -- 32
2020-06-17 16:00:00 27.9 16 Oeste 29 Oeste 0 -- -- 30
2020-06-17 15:00:00 27.5 11 Oeste 29 Noroeste 0 -- -- 33
2020-06-17 14:00:00 26.5 13 Oeste 26 Oeste 0 -- -- 35
2020-06-17 13:00:00 25.3 15 Oeste 30 Oeste 0 -- -- 39
2020-06-17 12:00:00 24.1 15 Noroeste 31 Noroeste 0 -- -- 45
2020-06-17 11:00:00 22.6 4 Oeste 12 Sudoeste 0 -- -- 53
2020-06-17 10:00:00 20.9 4 Sudoeste 9 Sudoeste 0 -- -- 62
2020-06-17 09:00:00 19.7 2 Noroeste 5 Norte 0 -- -- 67
2020-06-17 08:00:00 17.3 2 Nordeste 6 Noroeste 0 -- -- 78
2020-06-17 07:00:00 15.7 4 Norte 10 Noroeste 0 -- -- 82
2020-06-17 06:00:00 16.3 8 Norte 12 Norte 0 -- -- 79
2020-06-17 05:00:00 17 0 Calma 8 Norte 0 -- -- 76
2020-06-17 04:00:00 17.6 5 Nordeste 8 Noroeste 0 -- -- 72
2020-06-17 03:00:00 18.8 3 Noroeste 18 Oeste 0 -- -- 69
2020-06-17 02:00:00 19.1 9 Oeste 15 Oeste 0 -- -- 67
2020-06-17 01:00:00 19.4 6 Oeste 27 Oeste 0 -- -- 67
2020-06-17 00:00:00 20.1 17 Oeste 28 Oeste 0 -- -- 67
2020-06-16 23:00:00 21.3 10 Oeste 30 Oeste 0 -- -- 62
2020-06-16 22:00:00 22.7 16 Oeste 34 Oeste 0 -- -- 55
2020-06-16 21:00:00 24.6 21 Oeste 39 Oeste 0 -- -- 47
2020-06-16 20:00:00 26.1 23 Oeste 42 Oeste 0 -- -- 41
2020-06-16 19:00:00 25.9 24 Oeste 38 Oeste 0 -- -- 40
2020-06-16 18:00:00 27 21 Noroeste 42 Oeste 0 -- -- 35
2020-06-16 17:00:00 27.5 20 Oeste 40 Oeste 0 -- -- 29
2020-06-16 16:00:00 27 23 Oeste 43 Noroeste 0 -- -- 29
2020-06-16 15:00:00 26.2 23 Oeste 40 Oeste 0 -- -- 27
2020-06-16 14:00:00 25.6 17 Noroeste 34 Oeste 0 -- -- 32
2020-06-16 13:00:00 24.8 13 Noroeste 33 Oeste 0 -- -- 36
2020-06-16 12:00:00 23.7 15 Noroeste 32 Noroeste 0 -- -- 40
2020-06-16 11:00:00 22.5 9 Noroeste 21 Noroeste 0 -- -- 45
2020-06-16 10:00:00 20.6 4 Sudoeste 12 Sudoeste 0 -- -- 52
2020-06-16 09:00:00 18.4 0 Calma 4 Norte 0 -- -- 58
2020-06-16 08:00:00 17.2 2 Nordeste 13 Noroeste 0 -- -- 62
2020-06-16 07:00:00 16.2 7 Noroeste 12 Noroeste 0 -- -- 64
2020-06-16 06:00:00 16.4 7 Noroeste 10 Noroeste 0 -- -- 61
2020-06-16 05:00:00 16 4 Norte 6 Norte 0 -- -- 63
2020-06-16 04:00:00 15.7 3 Sudeste 8 Oeste 0 -- -- 66
2020-06-16 03:00:00 16.8 3 Oeste 6 Oeste 0 -- -- 58
2020-06-16 02:00:00 17.2 3 Noroeste 9 Nordeste 0 -- -- 58
2020-06-16 01:00:00 17.6 7 Nordeste 9 Nordeste 0 -- -- 55
2020-06-16 00:00:00 20 3 Oeste 13 Noroeste 0 -- -- 44
2020-06-15 23:00:00 21.9 7 Oeste 15 Oeste 0 -- -- 40
2020-06-15 22:00:00 22.9 11 Oeste 27 Noroeste 0 -- -- 40
2020-06-15 21:00:00 25.6 16 Noroeste 30 Oeste 0 -- -- 37
2020-06-15 20:00:00 27.2 15 Noroeste 29 Noroeste 0 -- -- 32
2020-06-15 19:00:00 28.2 17 Noroeste 28 Noroeste 0 -- -- 27
2020-06-15 18:00:00 28.3 14 Noroeste 28 Noroeste 0 -- -- 27
2020-06-15 17:00:00 28.2 13 Oeste 30 Noroeste 0 -- -- 26
2020-06-15 16:00:00 27.6 9 Sudoeste 26 Noroeste 0 -- -- 27
2020-06-15 15:00:00 26.8 15 Noroeste 30 Oeste 0 -- -- 28
2020-06-15 14:00:00 26.1 13 Norte 25 Noroeste 0 -- -- 32
2020-06-15 13:00:00 25.1 9 Noroeste 25 Norte 0 -- -- 35
2020-06-15 12:00:00 23.9 5 Noroeste 16 Nordeste 0 -- -- 39
2020-06-15 11:00:00 21.9 8 Norte 16 Norte 0 -- -- 46
2020-06-15 10:00:00 19.8 5 Norte 13 Norte 0 -- -- 54
2020-06-15 09:00:00 16.8 2 Norte 4 Noroeste 0 -- -- 61
2020-06-15 08:00:00 13 0 Calma 6 Norte 0 -- -- 73
2020-06-15 07:00:00 11 0 Calma 10 Norte 0 -- -- 76
2020-06-15 06:00:00 11.7 6 Nordeste 7 Nordeste 0 -- -- 76
2020-06-15 05:00:00 12.6 0 Calma 7 Noroeste 0 -- -- 71
2020-06-15 04:00:00 14.1 2 Este 6 Este 0 -- -- 71
2020-06-15 03:00:00 14.8 2 Sur 7 Norte 0 -- -- 68
2020-06-15 02:00:00 15.2 2 Sudoeste 11 Norte 0 -- -- 64
2020-06-15 01:00:00 16.7 7 Nordeste 11 Este 0 -- -- 56
2020-06-15 00:00:00 18.4 2 Oeste 15 Oeste 0 -- -- 50
2020-06-14 23:00:00 19.5 9 Oeste 26 Oeste 0 -- -- 46
2020-06-14 22:00:00 21.2 14 Oeste 26 Oeste 0 -- -- 41
2020-06-14 21:00:00 23.4 16 Oeste 32 Noroeste 0 -- -- 37
2020-06-14 20:00:00 24.9 17 Oeste 35 Oeste 0 -- -- 35
2020-06-14 19:00:00 26 21 Noroeste 34 Noroeste 0 -- -- 27
2020-06-14 18:00:00 26.5 19 Noroeste 34 Oeste 0 -- -- 27
2020-06-14 17:00:00 26.4 18 Noroeste 32 Oeste 0 -- -- 27
2020-06-14 16:00:00 26.4 16 Noroeste 31 Noroeste 0 -- -- 27
2020-06-14 15:00:00 25.6 8 Noroeste 30 Oeste 0 -- -- 29
2020-06-14 14:00:00 24.9 15 Noroeste 32 Noroeste 0 -- -- 31
2020-06-14 13:00:00 24 10 Noroeste 26 Norte 0 -- -- 37
2020-06-14 12:00:00 23.1 9 Norte 23 Norte 0 -- -- 39
2020-06-14 11:00:00 21.3 8 Norte 15 Norte 0 -- -- 47
2020-06-14 10:00:00 18.8 3 Sudoeste 6 Norte 0 -- -- 51
2020-06-14 09:00:00 15.8 0 Calma 4 Oeste 0 -- -- 59
2020-06-14 08:00:00 13.3 0 Calma 6 Sudeste 0 -- -- 68
2020-06-14 07:00:00 13 4 Sur 6 Sudeste 0 -- -- 68
2020-06-14 06:00:00 13.9 3 Este 9 Este 0 -- -- 62
2020-06-14 05:00:00 14.8 5 Este 7 Nordeste 0 -- -- 60
2020-06-14 04:00:00 15.5 6 Norte 17 Norte 0 -- -- 56
2020-06-14 03:00:00 15.8 7 Norte 17 Noroeste 0 -- -- 57
2020-06-14 02:00:00 16.1 3 Norte 9 Oeste 0 -- -- 55
2020-06-14 01:00:00 18 6 Oeste 10 Oeste 0 -- -- 49
2020-06-14 00:00:00 17.9 3 Noroeste 18 Oeste 0 -- -- 49
2020-06-13 23:00:00 18.1 12 Noroeste 18 Noroeste 0 -- -- 43
2020-06-13 22:00:00 20.3 10 Noroeste 18 Noroeste 0 -- -- 34
2020-06-13 21:00:00 22.7 13 Noroeste 27 Noroeste 0 -- -- 31
2020-06-13 20:00:00 24.1 19 Noroeste 31 Noroeste 0 -- -- 28
2020-06-13 19:00:00 24.9 18 Noroeste 31 Noroeste 0 -- -- 28
2020-06-13 18:00:00 25.2 12 Oeste 33 Norte 0 -- -- 29
2020-06-13 17:00:00 24.5 8 Noroeste 28 Noroeste 0 -- -- 30
2020-06-13 16:00:00 24 5 Sudoeste 25 Oeste 0 -- -- 33
2020-06-13 15:00:00 23 8 Oeste 26 Oeste 0 -- -- 34
2020-06-13 14:00:00 22.1 6 Noroeste 17 Noroeste 0 -- -- 39
2020-06-13 13:00:00 20.4 8 Noroeste 18 Oeste 0 -- -- 43
2020-06-13 12:00:00 20.3 5 Noroeste 12 Sudoeste 0 -- -- 45
2020-06-13 11:00:00 18 8 Sudoeste 15 Sudoeste 0 -- -- 56
2020-06-13 10:00:00 17.2 5 Norte 14 Sudoeste 0 -- -- 61
2020-06-13 09:00:00 14.9 4 Sudoeste 9 Sur 0 -- -- 71
2020-06-13 08:00:00 13.2 3 Sur 8 Oeste 0 -- -- 78
2020-06-13 07:00:00 12.8 4 Sur 16 Sudoeste 0 -- -- 79
2020-06-13 06:00:00 13.3 8 Oeste 14 Oeste 0 -- -- 78
2020-06-13 05:00:00 12.7 4 Sudeste 9 Sur 0 -- -- 76
2020-06-13 04:00:00 14.1 8 Sudoeste 22 Noroeste 0 -- -- 71
2020-06-13 03:00:00 13.8 10 Sudeste 24 Oeste 0 -- -- 68
2020-06-13 02:00:00 14.8 15 Oeste 30 Oeste 0 -- -- 64
2020-06-13 01:00:00 15 18 Oeste 36 Oeste 0 -- -- 68
2020-06-13 00:00:00 15.6 24 Oeste 41 Oeste 0 -- -- 63
2020-06-12 23:00:00 16.4 19 Oeste 41 Oeste 0 -- -- 57
2020-06-12 22:00:00 17.7 22 Oeste 39 Oeste 0 -- -- 49
2020-06-12 21:00:00 19.7 21 Oeste 42 Oeste 0 -- -- 43
2020-06-12 20:00:00 20.4 22 Oeste 44 Oeste 0 -- -- 40
2020-06-12 19:00:00 21.2 23 Oeste 45 Sudoeste 0 -- -- 41
2020-06-12 18:00:00 21.1 20 Oeste 41 Oeste 0 -- -- 42
2020-06-12 17:00:00 21.4 20 Oeste 37 Oeste 0 -- -- 41
2020-06-12 16:00:00 20.4 15 Oeste 32 Sudoeste 0 -- -- 43
2020-06-12 15:00:00 20.8 13 Oeste 29 Oeste 0 -- -- 43
2020-06-12 14:00:00 19.1 17 Oeste 31 Oeste 0 -- -- 46
2020-06-12 13:00:00 17.1 6 Oeste 21 Oeste 0 -- -- 59
2020-06-12 12:00:00 15 10 Noroeste 24 Oeste 0 -- -- 69
2020-06-12 11:00:00 15.2 14 Noroeste 24 Oeste 0 -- -- 67
2020-06-12 10:00:00 15.3 12 Oeste 22 Sudoeste 0 -- -- 72
2020-06-12 09:00:00 15.1 10 Oeste 23 Oeste 0 -- -- 75
2020-06-12 08:00:00 14.5 14 Oeste 24 Oeste 0 -- -- 79
2020-06-12 07:00:00 14.2 13 Sudoeste 23 Oeste 0 -- -- 83
2020-06-12 06:00:00 14.1 7 Oeste 28 Sudoeste 0 -- -- 86
2020-06-12 05:00:00 15.2 18 Oeste 30 Noroeste 0 -- -- 81
2020-06-12 04:00:00 15.7 19 Oeste 31 Oeste 0 -- -- 84
2020-06-12 03:00:00 16.3 19 Oeste 39 Oeste 0 -- -- 79
2020-06-12 02:00:00 16.7 20 Oeste 40 Oeste 0 -- -- 75
2020-06-12 01:00:00 17.4 23 Oeste 35 Oeste 0 -- -- 71
2020-06-12 00:00:00 17.5 20 Sudoeste 29 Sudoeste 0 -- -- 70